• Join FlightAware (Why Join?)
  • Login
  • US Flag 
04:41PM EDT


 

Airport Tracker/Info


-or-


 

Live Flight TrackerFlight Track Log ✈ SWA3211 ✈ 07-May-2012 ✈ KDEN - KMDW

Flight Track Log - Related Links

Times and Time Zones

All times are in EDT time to prevent confusion due to time zone crossing. See the SWA3211 flight status page for this flight to view local times or setup timezone preferences in your user account.

Time Position Orientation Groundspeed Altitude Reporting Facility
EDT Latitude Longitude Course Direction KTS MPH feet Rate Location/Type
10:30PM 39.8737 -103.7717 271° West  Level FlightAware Approximate
10:31PM 39.8834 -103.6254 270° West  Level FlightAware Approximate
10:32PM 39.8930 -103.4778 270° West  Level FlightAware Approximate
10:33PM 39.9000 -103.3300 269° West  Level FlightAware Approximate
10:34PM 39.9167 -103.1840 269° West  Level FlightAware Approximate
10:35PM 39.9300 -103.0366 268° West  Level FlightAware Approximate
10:36PM 39.9430 -102.8892 268° West  Level FlightAware Approximate
10:37PM 39.9415 -102.7445 268° West  Level FlightAware Approximate
10:38PM 39.9525 -102.5968 268° West  Level FlightAware Approximate
10:39PM 39.9667 -102.4498 268° West  Level FlightAware Approximate
10:40PM 39.9736 -102.3022 268° West  Level FlightAware Approximate
10:41PM 39.9842 -102.1543 268° West  Level FlightAware Approximate
10:42PM 39.9946 -102.0064 268° West  Level FlightAware Approximate
10:43PM 40.0034 -101.8583 268° West  Level FlightAware Approximate
10:44PM 40.0121 -101.7101 268° West  Level FlightAware Approximate
10:45PM 40.0206 -101.5619 268° West  Level FlightAware Approximate
10:46PM 40.0289 -101.4137 268° West  Level FlightAware Approximate
10:47PM 40.0370 -101.2654 268° West  Level FlightAware Approximate
10:48PM 40.0449 -101.1171 268° West  Level FlightAware Approximate
10:49PM 40.0527 -100.9688 268° West  Level FlightAware Approximate
10:50PM 40.0602 -100.8205 268° West  Level FlightAware Approximate
10:51PM 39.8833 -104.6167 90° East 179 206 6,400  Level Denver TRACON
10:56PM 39.8836 -104.0703 90° East 378 435 18,800 2,460 Climbing Denver Center
10:57PM 39.8828 -103.9350 89° East 365 420 21,300 2,400 Climbing Denver Center
10:58PM 39.8856 -103.7914 87° East 375 432 23,600 2,280 Climbing Denver Center
10:59PM 39.8906 -103.6422 84° East 402 463 25,900 2,040 Climbing Denver Center
11:00PM 39.9031 -103.4847 84° East 427 491 27,700 1,800 Climbing Denver Center
11:01PM 39.9156 -103.3272 85° East 432 497 29,500 1,500 Climbing Denver Center
11:02PM 39.9261 -103.1778 86° East 446 513 30,800 1,380 Climbing Denver Center
11:03PM 39.9356 -103.0067 84° East 458 527 32,300 1,080 Climbing Denver Center
11:04PM 39.9492 -102.8381 88° East 465 535 33,000 300 Climbing Denver Center
11:05PM 39.9539 -102.6589 86° East 479 551 33,000  Level Denver Center
11:06PM 39.9642 -102.4714 83° East 479 551 33,000  Level Denver Center
11:07PM 39.9789 -102.3022 80° East 479 551 33,000  Level Denver Center
11:08PM 40.0019 -102.1356 78° East 469 540 33,000  Level Denver Center
11:09PM 40.0256 -101.9847 80° East 469 540 33,000  Level Denver Center
11:10PM 40.0494 -101.8042 80° East 469 540 33,000  Level Denver Center
11:13PM 40.1142 -101.3161 83° East 469 540 33,000  Level Denver Center
11:19PM 40.2119 -100.2964 89° East 469 540 33,000  Level Denver Center
11:24PM 40.2219 -99.3497 90° East 482 555 33,000  Level Minneapolis Center
11:25PM 40.2208 -99.1758 90° East 477 549 33,000  Level Minneapolis Center
11:26PM 40.2217 -98.9994 90° East 477 549 33,000 60 Level Minneapolis Center
11:27PM 40.2222 -98.8258 89° East 477 549 33,200 960 Climbing Minneapolis Center
11:28PM 40.2244 -98.6494 91° East 482 555 35,000 840 Climbing Minneapolis Center
11:29PM 40.2222 -98.4756 89° East 477 549 35,000  Level Minneapolis Center
11:30PM 40.2236 -98.3075 84° East 477 549 35,000  Level Minneapolis Center
11:31PM 40.2372 -98.1403 79° East 467 537 35,000  Level Minneapolis Center
11:32PM 40.2633 -97.9711 80° East 467 537 35,000  Level Minneapolis Center
11:33PM 40.2867 -97.8017 79° East 467 537 35,000  Level Minneapolis Center
11:34PM 40.3094 -97.6483 80° East 474 545 35,000  Level Minneapolis Center
11:35PM 40.3325 -97.4814 80° East 474 545 35,000  Level Minneapolis Center
11:36PM 40.3550 -97.3169 81° East 474 545 35,000  Level Minneapolis Center
11:37PM 40.3756 -97.1469 79° East 469 540 35,000  Level Minneapolis Center
11:38PM 40.4000 -96.9797 81° East 464 534 35,000  Level Minneapolis Center
11:39PM 40.4222 -96.8039 79° East 470 541 35,000  Level Minneapolis Center
11:40PM 40.4461 -96.6339 80° East 470 541 35,000  Level Minneapolis Center
11:41PM 40.4694 -96.4633 80° East 470 541 35,000  Level Minneapolis Center
11:42PM 40.4908 -96.2956 81° East 470 541 35,000  Level Minneapolis Center
11:43PM 40.5117 -96.1247 81° East 470 541 35,000  Level Minneapolis Center
11:44PM 40.5325 -95.9539 80° East 470 541 35,000  Level Minneapolis Center
11:45PM 40.5550 -95.7831 79° East 470 541 35,000  Level Minneapolis Center
11:46PM 40.5794 -95.6094 81° East 475 547 35,000  Level Minneapolis Center
11:47PM 40.5994 -95.4356 80° East 475 547 35,000  Level Minneapolis Center
11:48PM 40.6211 -95.2669 48° Northeast 480 552 35,000  Level Minneapolis Center
11:49PM 40.7019 -95.1464 322° Northwest 449 517 35,000  Level Minneapolis Center
11:50PM 40.7819 -95.2281 266° West 242 278 35,000  Level Minneapolis Center
11:51PM 40.7756 -95.3617 266° West 226 260 35,000  Level Minneapolis Center
11:52PM 40.7686 -95.5011 267° West 292 336 35,000  Level Minneapolis Center
11:53PM 40.7639 -95.6378 267° West 343 395 35,000  Level Minneapolis Center
11:54PM 40.7589 -95.7769 267° West 370 426 35,000  Level Minneapolis Center
11:55PM 40.7539 -95.9164 266° West 383 441 35,000  Level Minneapolis Center
11:56PM 40.7467 -96.0500 268° West 383 441 35,000  Level Minneapolis Center
11:57PM 40.7431 -96.1867 266° West 383 441 35,000 -240 Level Minneapolis Center
11:58PM 40.7356 -96.3231 268° West 383 441 34,600 -540 Descending Minneapolis Center
11:59PM 40.7319 -96.4569 267° West 383 441 34,000 -300 Descending Minneapolis Center
12:00AM 40.7261 -96.5878 267° West 378 435 34,000  Level Minneapolis Center
12:01AM 40.7200 -96.7214 267° West 368 423 34,000  Level Minneapolis Center
12:02AM 40.7139 -96.8522 266° West 368 423 34,000  Level Minneapolis Center
12:03AM 40.7075 -96.9858 268° West 368 423 34,000  Level Minneapolis Center
12:04AM 40.7031 -97.1197 265° West 368 423 34,000  Level Minneapolis Center
12:05AM 40.6944 -97.2531 268° West 368 423 34,000  Level Minneapolis Center
12:06AM 40.6911 -97.4006 266° West 363 418 34,000  Level Minneapolis Center
12:07AM 40.6839 -97.5394 265° West 368 423 34,000  Level Minneapolis Center
12:08AM 40.6747 -97.6753 266° West 373 429 34,000  Level Minneapolis Center
12:09AM 40.6669 -97.8142 266° West 379 436 34,000  Level Minneapolis Center
12:10AM 40.6592 -97.9531 266° West 385 443 34,000  Level Minneapolis Center
12:11AM 40.6514 -98.0892 267° West 385 443 34,000  Level Minneapolis Center
12:12AM 40.6456 -98.2281 265° West 385 443 34,000  Level Minneapolis Center
12:15AM 40.6253 -98.5275 266° West 369 425 34,000  Level Denver Center
12:16AM 40.6178 -98.6625 265° West 374 430 34,000  Level Denver Center
12:17AM 40.6081 -98.7978 266° West 374 430 34,000  Level Denver Center
12:18AM 40.6003 -98.9331 264° West 374 430 34,000  Level Denver Center
12:19AM 40.5903 -99.0683 265° West 374 430 34,000  Level Denver Center
12:20AM 40.5819 -99.2006 265° West 374 430 34,000  Level Denver Center
12:21AM 40.5719 -99.3386 265° West 374 430 34,000  Level Denver Center
12:22AM 40.5636 -99.4733 265° West 374 430 34,000  Level Denver Center
12:23AM 40.5536 -99.6194 265° West 374 430 34,000  Level Denver Center
12:24AM 40.5447 -99.7544 264° West 374 430 34,000  Level Denver Center
12:25AM 40.5339 -99.8894 260° West 374 430 34,000  Level Denver Center
12:26AM 40.5178 -100.0142 261° West 379 436 34,000  Level Denver Center
12:27AM 40.4992 -100.1661 261° West 385 443 34,000  Level Denver Center
12:28AM 40.4819 -100.3100 261° West 397 457 34,000  Level Denver Center
12:29AM 40.4644 -100.4508 261° West 397 457 34,000  Level Denver Center
12:30AM 40.4497 -100.5722 261° West 389 448 34,000  Level Denver Center
12:31AM 40.4336 -100.7075 260° West 383 441 34,000  Level Denver Center
12:32AM 40.4139 -100.8539 260° West 372 428 34,000  Level Denver Center
12:33AM 40.3972 -100.9836 259° West 367 422 34,000  Level Denver Center
12:34AM 40.3783 -101.1133 261° West 367 422 34,000  Level Denver Center
12:35AM 40.3631 -101.2344 260° West 373 429 34,100 -420 Climbing Denver Center
12:36AM 40.3425 -101.3858 260° West 378 435 33,200 -900 Descending Denver Center
12:37AM 40.3236 -101.5236 261° West 378 435 32,400 -600 Descending Denver Center
12:38AM 40.3064 -101.6583 260° West 378 435 32,000 -240 Descending Denver Center
12:39AM 40.2903 -101.7739 260° West 373 429 32,000  Level Denver Center
12:40AM 40.2711 -101.9194 259° West 373 429 32,000  Level Denver Center
12:41AM 40.2511 -102.0489 260° West 373 429 32,000  Level Denver Center
12:42AM 40.2331 -102.1806 259° West 373 429 32,000  Level Denver Center
12:43AM 40.2147 -102.3014 260° West 378 435 32,000  Level Denver Center
12:45AM 40.1747 -102.5947 263° West 388 447 32,000  Level Denver Center
12:46AM 40.1608 -102.7397 259° West 407 468 32,000  Level Denver Center
12:47AM 40.1403 -102.8767 260° West 402 463 32,000  Level Denver Center
12:48AM 40.1217 -103.0161 258° West 397 457 32,000 -1,860 Level Denver Center
12:51AM 40.0597 -103.4072 262° West 358 412 24,700 -2,160 Descending Denver Center
12:56AM 39.9967 -103.9931 269° West 323 372 15,000 -1,980 Descending Denver Center
12:57AM 39.9947 -104.1042 273° West 318 366 13,000 -2,040 Descending Denver Center
12:58AM 39.9989 -104.2125 277° West 302 348 10,900 -1,500 Descending Denver Center
12:59AM 40.0092 -104.3153 278° West 296 341 10,000 -1,080 Descending Denver Center
12:59AM 40.0167 -104.3833 255° West 257 296 9,200 -1,260 Descending Denver TRACON
01:00AM 40.0000 -104.4667 270° West 255 293 8,000 -840 Descending Denver TRACON
01:01AM 40.0000 -104.5500 252° West 220 253 7,600 -420 Descending Denver TRACON
01:03AM 39.9667 -104.6833 180° South 157 181 6,700 -540 Descending Denver TRACON
01:04AM 39.9333 -104.6833 82° East 131 151 6,100 -600 Descending Denver TRACON
01:12AM 40.0553 -103.5673 82° East  Level FlightAware Approximate
01:13AM 40.0705 -103.4208 82° East  Level FlightAware Approximate
01:14AM 40.0855 -103.2742 82° East  Level FlightAware Approximate